Jamestown Regional Airport
KJMS : now visible

Airfield :











YOU CAN JOIN US ON...

 
LOGIN :

Register | Disclaimer

   EN    FR    IT 

 









Legend :    VFR   Marginal VFR   IFR   Intensive IFR   Very Intensive IFR
Visi :
Ceiling :
>= 8 km
>= 3000ft
5 to 8 km
1000 to 3000 ft
1500m to 5 km
500 to 1000 ft
800 to 1500m
200 to 500 ft
< 800m
< 200 ft
Symbols :   Thunderstorms  Fog  Heavy snow  Heavy precipitations  Wind > 20 kt






- Airport Elevation : 1500 ft
- IATA code : JMS


KJMS - Jamestown Regional

CURRENT METAR :
  • 280356Z AUTO 23010KT 10SM CLR 03/M06 A2987 RMK AO2 SLP133 T00331056

EXPIRED METARs :
  • 280256Z AUTO 23009KT 10SM CLR 04/M06 A2989 RMK AO2 SLP141 T00391056 56004
  • 280156Z AUTO 24006KT 10SM CLR 03/M06 A2990 RMK AO2 SLP143 T00331056

TAF KJMS
Valid from the 28 at 00:00 until the 29 at 00:00 UTC


272329Z 2800/2824 22010KT P6SM FEW150
FM280700 26010G18KT P6SM FEW250
KZMP FIR / North America



MET'MAP, your aeronautical weather chart ! - Copyright ORBIFLY December 2007 - Disclaimer

ORBIFLY MET'MAP TEAM :

Programming & Development : Alexandra Zaïnal
Concept & original design : Baudouin d'Aumeries
Assistance for programming : Marc-Olivier Méhu
Technical & hardware support : Manuel Goepfert

Contact : metmap@orbifly.com




SOURCES & CREDITS :

   NOAA       Earth
Advisory